createdAt,value
2018-07-21T00:00:57.045Z,95024.00
2018-07-21T00:03:28.863Z,95016.00
2018-07-21T00:06:00.559Z,95010.00
2018-07-21T00:08:32.312Z,95012.00
2018-07-21T00:11:04.034Z,95011.00
2018-07-21T00:13:35.712Z,95009.00
2018-07-21T00:16:07.523Z,95005.00
2018-07-21T00:18:39.192Z,95006.00
2018-07-21T00:21:11.000Z,95005.00
2018-07-21T00:23:42.739Z,95008.00
2018-07-21T00:26:14.461Z,95004.00
2018-07-21T00:28:46.239Z,95009.00
2018-07-21T00:31:18.199Z,95010.00
2018-07-21T00:33:50.032Z,95015.00
2018-07-21T00:36:21.791Z,95019.00
2018-07-21T00:38:53.539Z,95016.00
2018-07-21T00:41:25.351Z,95019.00
2018-07-21T00:43:57.079Z,95016.00
2018-07-21T00:46:28.511Z,95009.00
2018-07-21T00:49:00.079Z,95009.00
2018-07-21T00:51:31.842Z,95004.00
2018-07-21T00:54:03.631Z,95002.00
2018-07-21T00:56:36.043Z,95001.00
2018-07-21T00:59:07.823Z,94995.00
2018-07-21T01:01:39.920Z,94999.00
2018-07-21T01:04:11.609Z,94997.00
2018-07-21T01:06:42.999Z,94996.00
2018-07-21T01:09:14.619Z,94996.00
2018-07-21T01:11:46.477Z,94996.00
2018-07-21T01:14:18.623Z,94989.00
2018-07-21T01:16:50.399Z,94987.00
2018-07-21T01:19:22.161Z,94989.00
2018-07-21T01:21:53.879Z,94992.00
2018-07-21T01:24:25.811Z,94983.00
2018-07-21T01:26:57.896Z,94983.00
2018-07-21T01:29:29.664Z,94983.00
2018-07-21T01:32:01.706Z,94982.00
2018-07-21T01:34:33.540Z,94980.00
2018-07-21T01:37:05.321Z,94986.00
2018-07-21T01:39:36.995Z,94984.00
2018-07-21T01:42:08.654Z,94985.00
2018-07-21T01:44:40.350Z,94981.00
2018-07-21T01:47:12.083Z,94978.00
2018-07-21T01:49:43.819Z,94977.00
2018-07-21T01:52:15.617Z,94979.00
2018-07-21T01:54:47.369Z,94971.00
2018-07-21T01:57:19.118Z,94963.00
2018-07-21T01:59:50.880Z,94963.00
2018-07-21T02:02:22.678Z,94957.00
2018-07-21T02:04:54.453Z,94963.00
2018-07-21T02:07:26.164Z,94960.00
2018-07-21T02:09:57.920Z,94966.00
2018-07-21T02:12:29.681Z,94961.00
2018-07-21T02:15:01.543Z,94966.00
2018-07-21T02:17:32.794Z,94963.00
2018-07-21T02:20:04.455Z,94961.00
2018-07-21T02:22:36.295Z,94962.00
2018-07-21T02:25:08.751Z,94958.00
2018-07-21T02:27:40.515Z,94957.00
2018-07-21T02:30:12.323Z,94955.00
2018-07-21T02:32:44.019Z,94950.00
2018-07-21T02:35:15.791Z,94952.00
2018-07-21T02:37:47.620Z,94952.00
2018-07-21T02:40:18.951Z,94954.00
2018-07-21T02:42:50.519Z,94956.00
2018-07-21T02:45:22.379Z,94959.00
2018-07-21T02:47:54.079Z,94957.00
2018-07-21T02:50:25.859Z,94961.00
2018-07-21T02:52:57.623Z,94957.00
2018-07-21T02:55:30.178Z,94961.00
2018-07-21T02:58:01.981Z,94968.00
2018-07-21T03:00:33.821Z,94970.00
2018-07-21T03:03:05.579Z,94972.00
2018-07-21T03:05:36.920Z,94973.00
2018-07-21T03:08:08.031Z,94979.00
2018-07-21T03:10:39.139Z,94973.00
2018-07-21T03:13:10.219Z,94981.00
2018-07-21T03:15:41.771Z,94974.00
2018-07-21T03:18:13.483Z,94965.00
2018-07-21T03:20:45.277Z,94960.00
2018-07-21T03:23:16.960Z,94958.00
2018-07-21T03:25:48.463Z,94961.00
2018-07-21T03:28:20.172Z,94951.00
2018-07-21T03:30:51.792Z,94949.00
2018-07-21T03:33:23.399Z,94961.00
2018-07-21T03:35:54.991Z,94953.00
2018-07-21T03:38:26.559Z,94949.00
2018-07-21T03:40:58.182Z,94945.00
2018-07-21T03:43:29.791Z,94953.00
2018-07-21T03:46:01.411Z,94951.00
2018-07-21T03:48:32.963Z,94953.00
2018-07-21T03:51:04.619Z,94958.00
2018-07-21T03:53:36.187Z,94964.00
2018-07-21T03:56:08.042Z,94973.00
2018-07-21T03:58:39.639Z,94971.00
2018-07-21T04:01:11.241Z,94969.00
2018-07-21T04:03:42.731Z,94972.00
2018-07-21T04:06:14.371Z,94972.00
2018-07-21T04:08:45.971Z,94972.00
2018-07-21T04:11:17.531Z,94974.00
2018-07-21T04:13:49.171Z,94972.00
2018-07-21T04:16:20.403Z,94973.00
2018-07-21T04:18:51.779Z,94968.00
2018-07-21T04:21:23.396Z,94968.00
2018-07-21T04:23:54.999Z,94970.00
2018-07-21T04:26:26.643Z,94971.00
2018-07-21T04:28:58.524Z,94963.00
2018-07-21T04:31:30.200Z,94958.00
2018-07-21T04:34:01.809Z,94956.00
2018-07-21T04:36:33.421Z,94952.00
2018-07-21T04:39:07.160Z,94950.00
2018-07-21T04:41:38.799Z,94951.00
2018-07-21T04:44:09.994Z,94949.00
2018-07-21T04:46:41.378Z,94944.00
2018-07-21T04:49:12.931Z,94948.00
2018-07-21T04:51:44.800Z,94948.00
2018-07-21T04:54:16.540Z,94943.00
2018-07-21T04:56:48.443Z,94948.00
2018-07-21T04:59:20.259Z,94952.00
2018-07-21T05:01:52.039Z,94949.00
2018-07-21T05:04:24.026Z,94950.00
2018-07-21T05:06:56.091Z,94951.00
2018-07-21T05:09:27.779Z,94950.00
2018-07-21T05:11:59.559Z,94948.00
2018-07-21T05:14:31.643Z,94954.00
2018-07-21T05:17:03.383Z,94951.00
2018-07-21T05:19:35.176Z,94955.00
2018-07-21T05:22:07.299Z,94955.00
2018-07-21T05:24:39.084Z,94955.00
2018-07-21T05:27:10.840Z,94958.00
2018-07-21T05:29:42.879Z,94956.00
2018-07-21T05:32:14.611Z,94963.00
2018-07-21T05:34:46.359Z,94961.00
2018-07-21T05:37:18.159Z,94966.00
2018-07-21T05:39:49.896Z,94963.00
2018-07-21T05:42:21.703Z,94964.00
2018-07-21T05:44:53.353Z,94972.00
2018-07-21T05:47:25.115Z,94967.00
2018-07-21T05:49:56.851Z,94973.00
2018-07-21T05:52:28.649Z,94970.00
2018-07-21T05:55:00.400Z,94977.00
2018-07-21T05:57:32.183Z,94978.00
2018-07-21T06:00:03.934Z,94971.00
2018-07-21T06:02:35.797Z,94970.00
2018-07-21T06:05:08.126Z,94973.00
2018-07-21T06:07:39.922Z,94975.00
2018-07-21T06:10:11.699Z,94972.00
2018-07-21T06:12:43.585Z,94975.00
2018-07-21T06:15:15.623Z,94977.00
2018-07-21T06:17:47.299Z,94979.00
2018-07-21T06:20:19.062Z,94980.00
2018-07-21T06:22:50.899Z,94982.00
2018-07-21T06:25:22.606Z,94989.00
2018-07-21T06:27:54.479Z,94989.00
2018-07-21T06:30:27.035Z,94988.00
2018-07-21T06:32:59.092Z,94994.00
2018-07-21T06:35:30.819Z,94990.00
2018-07-21T06:38:02.645Z,94990.00
2018-07-21T06:40:34.406Z,94992.00
2018-07-21T06:43:06.702Z,94987.00
2018-07-21T06:45:38.411Z,94990.00
2018-07-21T06:48:10.115Z,94990.00
2018-07-21T06:50:41.714Z,94991.00
2018-07-21T06:53:13.399Z,94996.00
2018-07-21T06:55:45.032Z,94997.00
2018-07-21T06:58:16.798Z,94995.00
2018-07-21T07:00:48.918Z,95002.00
2018-07-21T07:03:21.035Z,95002.00
2018-07-21T07:05:53.303Z,95003.00
2018-07-21T07:08:25.037Z,95007.00
2018-07-21T07:10:56.743Z,95004.00
2018-07-21T07:13:28.519Z,95008.00
2018-07-21T07:16:00.213Z,95006.00
2018-07-21T07:18:32.224Z,95006.00
2018-07-21T07:21:03.939Z,95010.00
2018-07-21T07:23:35.180Z,95017.00
2018-07-21T07:26:06.818Z,95018.00
2018-07-21T07:28:38.567Z,95023.00
2018-07-21T07:31:10.260Z,95028.00
2018-07-21T07:33:41.964Z,95028.00
2018-07-21T07:36:13.687Z,95036.00
2018-07-21T07:38:45.574Z,95034.00
2018-07-21T07:41:17.398Z,95026.00
2018-07-21T07:43:49.134Z,95030.00
2018-07-21T07:46:20.879Z,95029.00
2018-07-21T07:48:52.176Z,95033.00
2018-07-21T07:51:23.698Z,95031.00
2018-07-21T07:53:55.066Z,95031.00
2018-07-21T07:56:26.642Z,95028.00
2018-07-21T07:58:58.642Z,95022.00
2018-07-21T08:01:34.670Z,95017.00
2018-07-21T08:04:08.394Z,95016.00
2018-07-21T08:06:45.483Z,95017.00
2018-07-21T08:09:19.667Z,95018.00
2018-07-21T08:11:51.390Z,95016.00
2018-07-21T08:14:24.865Z,95021.00
2018-07-21T08:16:58.523Z,95022.00
2018-07-21T08:19:30.534Z,95021.00
2018-07-21T08:22:02.222Z,95021.00
2018-07-21T08:24:34.077Z,95018.00
2018-07-21T08:27:06.312Z,95017.00
2018-07-21T08:29:38.299Z,95018.00
2018-07-21T08:32:10.104Z,95019.00
2018-07-21T08:34:42.027Z,95022.00
2018-07-21T08:37:13.680Z,95020.00
2018-07-21T08:39:45.864Z,95017.00
2018-07-21T08:42:17.610Z,95015.00
2018-07-21T08:44:49.323Z,95023.00
2018-07-21T08:47:21.109Z,95021.00
2018-07-21T08:49:52.444Z,95021.00
2018-07-21T08:52:24.057Z,95018.00
2018-07-21T08:54:55.838Z,95019.00
2018-07-21T08:57:27.634Z,95018.00
2018-07-21T08:59:59.358Z,95016.00
2018-07-21T09:02:31.083Z,95011.00
2018-07-21T09:05:03.258Z,95017.00
2018-07-21T09:07:34.806Z,95012.00
2018-07-21T09:10:06.828Z,95018.00
2018-07-21T09:12:38.591Z,95013.00
2018-07-21T09:15:10.799Z,95021.00
2018-07-21T09:17:42.519Z,95015.00
2018-07-21T09:20:14.267Z,95015.00
2018-07-21T09:22:46.020Z,95015.00
2018-07-21T09:25:17.984Z,95018.00
2018-07-21T09:27:49.701Z,95015.00
2018-07-21T09:30:21.439Z,95016.00
2018-07-21T09:32:53.127Z,95023.00
2018-07-21T09:35:24.840Z,95023.00
2018-07-21T09:37:56.902Z,95024.00
2018-07-21T09:40:28.695Z,95024.00
2018-07-21T09:43:00.419Z,95028.00
2018-07-21T09:45:32.168Z,95026.00
2018-07-21T09:48:04.143Z,95029.00
2018-07-21T09:50:36.044Z,95027.00
2018-07-21T09:53:07.839Z,95031.00
2018-07-21T09:55:39.695Z,95026.00
2018-07-21T09:58:11.727Z,95025.00
2018-07-21T10:00:48.673Z,95016.00
2018-07-21T10:03:20.503Z,95022.00
2018-07-21T10:05:52.235Z,95020.00
2018-07-21T10:08:24.072Z,95025.00
2018-07-21T10:10:55.824Z,95027.00
2018-07-21T10:13:27.703Z,95022.00
2018-07-21T10:15:59.967Z,95027.00
2018-07-21T10:18:31.704Z,95028.00
2018-07-21T10:21:03.442Z,95023.00
2018-07-21T10:23:35.471Z,95023.00
2018-07-21T10:26:12.523Z,95022.00
2018-07-21T10:28:49.421Z,95022.00
2018-07-21T10:31:21.176Z,95016.00
2018-07-21T10:33:52.815Z,95019.00
2018-07-21T10:36:24.575Z,95020.00
2018-07-21T10:38:56.483Z,95018.00
2018-07-21T10:41:28.314Z,95020.00
2018-07-21T10:44:00.040Z,95016.00
2018-07-21T10:46:31.843Z,95022.00
2018-07-21T10:49:03.623Z,95016.00
2018-07-21T10:51:35.559Z,95015.00
2018-07-21T10:54:07.851Z,95014.00
2018-07-21T10:56:39.611Z,95016.00
2018-07-21T10:59:11.484Z,95016.00
2018-07-21T11:01:43.264Z,95010.00
2018-07-21T11:04:15.191Z,95020.00
2018-07-21T11:06:47.107Z,95015.00
2018-07-21T11:09:18.874Z,95020.00
2018-07-21T11:11:50.819Z,95019.00
2018-07-21T11:14:23.015Z,95017.00
2018-07-21T11:16:54.782Z,95017.00
2018-07-21T11:19:26.558Z,95015.00
2018-07-21T11:21:58.425Z,95017.00
2018-07-21T11:24:30.347Z,95017.00
2018-07-21T11:27:02.544Z,95021.00
2018-07-21T11:29:34.124Z,95022.00
2018-07-21T11:32:05.821Z,95021.00
2018-07-21T11:34:37.563Z,95022.00
2018-07-21T11:37:09.222Z,95014.00
2018-07-21T11:39:40.866Z,95015.00
2018-07-21T11:42:12.583Z,95018.00
2018-07-21T11:44:44.184Z,95016.00
2018-07-21T11:47:15.895Z,95018.00
2018-07-21T11:49:48.396Z,95016.00
2018-07-21T11:52:20.084Z,95014.00
2018-07-21T11:54:52.516Z,95018.00
2018-07-21T11:57:24.094Z,95012.00
2018-07-21T11:59:55.723Z,95015.00
2018-07-21T12:02:27.604Z,95012.00
2018-07-21T12:04:59.592Z,95016.00
2018-07-21T12:07:31.222Z,95016.00
2018-07-21T12:10:02.855Z,95017.00
2018-07-21T12:12:34.632Z,95011.00
2018-07-21T12:15:06.377Z,95009.00
2018-07-21T12:17:38.118Z,95012.00
2018-07-21T12:20:09.783Z,95011.00
2018-07-21T12:22:41.566Z,95010.00
2018-07-21T12:25:13.202Z,95000.00
2018-07-21T12:27:44.922Z,95004.00
2018-07-21T12:30:16.731Z,95006.00
2018-07-21T12:32:48.571Z,95003.00
2018-07-21T12:35:20.283Z,94998.00
2018-07-21T12:37:52.403Z,94995.00
2018-07-21T12:40:24.183Z,94994.00
2018-07-21T12:42:55.954Z,94995.00
2018-07-21T12:45:27.633Z,94991.00
2018-07-21T12:47:59.443Z,94983.00
2018-07-21T12:50:30.711Z,94985.00
2018-07-21T12:53:02.295Z,94984.00
2018-07-21T12:55:33.992Z,94986.00
2018-07-21T12:58:05.895Z,94977.00
2018-07-21T13:00:37.646Z,94978.00
2018-07-21T13:03:09.692Z,94973.00
2018-07-21T13:05:41.425Z,94973.00
2018-07-21T13:08:13.335Z,94966.00
2018-07-21T13:10:45.055Z,94964.00
2018-07-21T13:13:16.807Z,94957.00
2018-07-21T13:15:48.404Z,94955.00
2018-07-21T13:18:20.046Z,94950.00
2018-07-21T13:20:51.704Z,94948.00
2018-07-21T13:23:23.367Z,94947.00
2018-07-21T13:25:54.979Z,94942.00
2018-07-21T13:28:26.624Z,94941.00
2018-07-21T13:30:58.150Z,94944.00
2018-07-21T13:33:29.745Z,94939.00
2018-07-21T13:36:01.434Z,94931.00
2018-07-21T13:38:33.103Z,94934.00
2018-07-21T13:41:04.735Z,94932.00
2018-07-21T13:43:36.300Z,94921.00
2018-07-21T13:46:07.935Z,94920.00
2018-07-21T13:48:39.560Z,94919.00
2018-07-21T13:51:11.107Z,94919.00
2018-07-21T13:53:42.775Z,94916.00
2018-07-21T13:56:14.479Z,94917.00
2018-07-21T13:58:46.070Z,94920.00
2018-07-21T14:01:17.731Z,94916.00
2018-07-21T14:03:49.799Z,94916.00
2018-07-21T14:06:21.446Z,94917.00
2018-07-21T14:08:52.995Z,94915.00
2018-07-21T14:11:24.667Z,94914.00
2018-07-21T14:13:56.492Z,94921.00
2018-07-21T14:16:28.054Z,94915.00
2018-07-21T14:18:59.683Z,94923.00
2018-07-21T14:21:31.335Z,94929.00
2018-07-21T14:24:03.116Z,94926.00
2018-07-21T14:26:34.763Z,94931.00
2018-07-21T14:29:06.595Z,94925.00
2018-07-21T14:31:37.743Z,94929.00
2018-07-21T14:34:09.151Z,94926.00
2018-07-21T14:36:40.802Z,94923.00
2018-07-21T14:39:13.330Z,94917.00
2018-07-21T14:41:45.100Z,94918.00
2018-07-21T14:44:16.729Z,94918.00
2018-07-21T14:46:48.277Z,94920.00
2018-07-21T14:49:19.879Z,94923.00
2018-07-21T14:51:51.735Z,94927.00
2018-07-21T14:54:23.375Z,94924.00
2018-07-21T14:56:55.028Z,94920.00
2018-07-21T14:59:26.770Z,94918.00
2018-07-21T15:01:58.361Z,94921.00
2018-07-21T15:04:30.054Z,94924.00
2018-07-21T15:07:01.723Z,94923.00
2018-07-21T15:09:33.406Z,94918.00
2018-07-21T15:12:05.122Z,94920.00
2018-07-21T15:14:36.843Z,94920.00
2018-07-21T15:17:08.494Z,94923.00
2018-07-21T15:19:40.137Z,94927.00
2018-07-21T15:22:11.746Z,94924.00
2018-07-21T15:24:44.396Z,94919.00
2018-07-21T15:27:16.063Z,94917.00
2018-07-21T15:29:48.215Z,94912.00
2018-07-21T15:32:19.804Z,94912.00
2018-07-21T15:34:51.843Z,94915.00
2018-07-21T15:37:23.503Z,94914.00
2018-07-21T15:39:55.163Z,94915.00
2018-07-21T15:42:27.102Z,94917.00
2018-07-21T15:44:59.264Z,94921.00
2018-07-21T15:47:30.812Z,94922.00
2018-07-21T15:50:02.424Z,94922.00
2018-07-21T15:52:33.955Z,94920.00
2018-07-21T15:55:05.711Z,94921.00
2018-07-21T15:57:37.405Z,94921.00
2018-07-21T16:00:09.875Z,94926.00
2018-07-21T16:02:41.647Z,94928.00
2018-07-21T16:05:13.396Z,94926.00
2018-07-21T16:07:45.175Z,94922.00
2018-07-21T16:10:17.043Z,94914.00
2018-07-21T16:12:48.756Z,94921.00
2018-07-21T16:15:20.598Z,94915.00
2018-07-21T16:17:52.375Z,94913.00
2018-07-21T16:20:24.219Z,94916.00
2018-07-21T16:22:55.969Z,94912.00
2018-07-21T16:25:27.837Z,94918.00
2018-07-21T16:28:00.313Z,94919.00
2018-07-21T16:30:32.088Z,94916.00
2018-07-21T16:33:03.698Z,94923.00
2018-07-21T16:35:35.524Z,94921.00
2018-07-21T16:38:07.363Z,94921.00
2018-07-21T16:40:39.111Z,94919.00
2018-07-21T16:43:10.784Z,94909.00
2018-07-21T16:45:42.578Z,94915.00
2018-07-21T16:48:14.323Z,94914.00
2018-07-21T16:50:46.463Z,94914.00
2018-07-21T16:53:19.300Z,94912.00
2018-07-21T16:55:51.047Z,94913.00
2018-07-21T16:58:22.897Z,94911.00
2018-07-21T17:00:55.280Z,94914.00
2018-07-21T17:03:26.579Z,94912.00
2018-07-21T17:05:58.173Z,94905.00
2018-07-21T17:08:29.912Z,94905.00
2018-07-21T17:11:01.712Z,94907.00
2018-07-21T17:13:33.567Z,94906.00
2018-07-21T17:16:05.690Z,94902.00
2018-07-21T17:18:39.257Z,94906.00
2018-07-21T17:21:11.103Z,94910.00
2018-07-21T17:23:42.928Z,94904.00
2018-07-21T17:26:15.512Z,94904.00
2018-07-21T17:28:46.878Z,94908.00
2018-07-21T17:31:18.572Z,94904.00
2018-07-21T17:33:50.291Z,94910.00
2018-07-21T17:36:21.659Z,94908.00
2018-07-21T17:38:53.219Z,94910.00
2018-07-21T17:41:24.979Z,94908.00
2018-07-21T17:43:56.567Z,94916.00
2018-07-21T17:46:28.239Z,94918.00
2018-07-21T17:49:00.428Z,94921.00
2018-07-21T17:51:32.083Z,94917.00
2018-07-21T17:54:03.864Z,94914.00
2018-07-21T17:56:35.560Z,94909.00
2018-07-21T17:59:07.261Z,94905.00
2018-07-21T18:01:39.171Z,94911.00
2018-07-21T18:04:11.247Z,94920.00
2018-07-21T18:06:42.863Z,94931.00
2018-07-21T18:09:14.000Z,94936.00
2018-07-21T18:11:45.711Z,94940.00
2018-07-21T18:14:17.353Z,94941.00
2018-07-21T18:16:49.093Z,94937.00
2018-07-21T18:19:20.629Z,94938.00
2018-07-21T18:21:52.241Z,94934.00
2018-07-21T18:24:23.959Z,94936.00
2018-07-21T18:26:55.559Z,94936.00
2018-07-21T18:29:27.175Z,94940.00
2018-07-21T18:31:58.987Z,94943.00
2018-07-21T18:34:30.812Z,94955.00
2018-07-21T18:37:02.474Z,94950.00
2018-07-21T18:39:34.199Z,94946.00
2018-07-21T18:42:06.103Z,94939.00
2018-07-21T18:44:38.240Z,94942.00
2018-07-21T18:47:10.059Z,94946.00
2018-07-21T18:49:41.780Z,94947.00
2018-07-21T18:52:13.994Z,94948.00
2018-07-21T18:54:45.740Z,94954.00
2018-07-21T18:57:17.574Z,94958.00
2018-07-21T18:59:49.539Z,94959.00
2018-07-21T19:02:22.140Z,94965.00
2018-07-21T19:04:53.912Z,94968.00
2018-07-21T19:07:25.703Z,94972.00
2018-07-21T19:09:57.900Z,94967.00
2018-07-21T19:12:34.684Z,94963.00
2018-07-21T19:15:07.028Z,94966.00
2018-07-21T19:17:39.266Z,94966.00
2018-07-21T19:20:16.072Z,94976.00
2018-07-21T19:22:47.839Z,94975.00
2018-07-21T19:25:25.177Z,94979.00
2018-07-21T19:27:56.940Z,94983.00
2018-07-21T19:30:28.659Z,94984.00
2018-07-21T19:33:01.685Z,94989.00
2018-07-21T19:35:33.311Z,94992.00
2018-07-21T19:38:05.143Z,95001.00
2018-07-21T19:40:36.743Z,94999.00
2018-07-21T19:43:08.429Z,95010.00
2018-07-21T19:45:40.182Z,95023.00
2018-07-21T19:48:11.879Z,95022.00
2018-07-21T19:50:43.506Z,95031.00
2018-07-21T19:53:15.163Z,95036.00
2018-07-21T19:55:47.375Z,95040.00
2018-07-21T19:58:19.500Z,95048.00
2018-07-21T20:00:51.877Z,95051.00
2018-07-21T20:03:24.105Z,95056.00
2018-07-21T20:05:56.058Z,95055.00
2018-07-21T20:08:27.859Z,95064.00
2018-07-21T20:10:59.675Z,95067.00
2018-07-21T20:13:31.497Z,95069.00
2018-07-21T20:16:03.198Z,95068.00
2018-07-21T20:18:35.019Z,95068.00
2018-07-21T20:21:06.841Z,95080.00
2018-07-21T20:23:38.599Z,95082.00
2018-07-21T20:26:10.422Z,95080.00
2018-07-21T20:28:43.173Z,95085.00
2018-07-21T20:31:14.952Z,95093.00
2018-07-21T20:33:46.792Z,95093.00
2018-07-21T20:36:18.824Z,95102.00
2018-07-21T20:38:50.707Z,95101.00
2018-07-21T20:41:22.543Z,95098.00
2018-07-21T20:43:54.283Z,95102.00
2018-07-21T20:46:26.187Z,95103.00
2018-07-21T20:48:58.979Z,95106.00
2018-07-21T20:51:30.635Z,95106.00
2018-07-21T20:54:02.475Z,95105.00
2018-07-21T20:56:34.267Z,95108.00
2018-07-21T20:59:06.118Z,95109.00
2018-07-21T21:01:37.923Z,95106.00
2018-07-21T21:04:09.706Z,95105.00
2018-07-21T21:06:42.279Z,95099.00
2018-07-21T21:09:14.036Z,95110.00
2018-07-21T21:11:45.803Z,95111.00
2018-07-21T21:14:19.195Z,95112.00
2018-07-21T21:16:50.943Z,95112.00
2018-07-21T21:19:22.731Z,95110.00
2018-07-21T21:21:54.619Z,95116.00
2018-07-21T21:24:26.897Z,95114.00
2018-07-21T21:26:58.674Z,95121.00
2018-07-21T21:29:30.457Z,95123.00
2018-07-21T21:32:02.523Z,95121.00
2018-07-21T21:34:34.388Z,95125.00
2018-07-21T21:37:06.383Z,95121.00
2018-07-21T21:39:38.151Z,95127.00
2018-07-21T21:42:09.774Z,95125.00
2018-07-21T21:44:41.399Z,95125.00
2018-07-21T21:47:13.031Z,95123.00
2018-07-21T21:49:44.665Z,95121.00
2018-07-21T21:52:16.218Z,95124.00
2018-07-21T21:54:47.784Z,95126.00
2018-07-21T21:57:19.579Z,95129.00
2018-07-21T21:59:51.094Z,95129.00
2018-07-21T22:02:22.719Z,95130.00
2018-07-21T22:04:54.359Z,95129.00
2018-07-21T22:07:26.012Z,95129.00
2018-07-21T22:09:57.591Z,95129.00
2018-07-21T22:12:29.218Z,95131.00
2018-07-21T22:15:00.831Z,95127.00
2018-07-21T22:17:32.412Z,95128.00
2018-07-21T22:20:04.108Z,95129.00
2018-07-21T22:22:35.697Z,95128.00
2018-07-21T22:25:07.464Z,95123.00
2018-07-21T22:27:39.082Z,95126.00
2018-07-21T22:30:15.675Z,95130.00
2018-07-21T22:32:47.247Z,95135.00
2018-07-21T22:35:18.899Z,95132.00
2018-07-21T22:37:50.555Z,95130.00
2018-07-21T22:40:22.363Z,95130.00
2018-07-21T22:42:53.955Z,95137.00
2018-07-21T22:45:25.583Z,95135.00
2018-07-21T22:47:57.163Z,95141.00
2018-07-21T22:50:28.791Z,95137.00
2018-07-21T22:53:00.368Z,95136.00
2018-07-21T22:55:32.044Z,95141.00
2018-07-21T22:58:03.643Z,95134.00
2018-07-21T23:00:35.243Z,95131.00
2018-07-21T23:03:06.863Z,95128.00
2018-07-21T23:05:38.534Z,95121.00
2018-07-21T23:08:10.127Z,95119.00
2018-07-21T23:10:41.963Z,95115.00
2018-07-21T23:13:13.571Z,95112.00
2018-07-21T23:15:45.183Z,95116.00
2018-07-21T23:18:16.835Z,95110.00
2018-07-21T23:20:48.506Z,95116.00
2018-07-21T23:23:20.143Z,95115.00
2018-07-21T23:25:51.783Z,95118.00
2018-07-21T23:28:23.392Z,95123.00
2018-07-21T23:30:55.037Z,95118.00
2018-07-21T23:33:27.261Z,95118.00
2018-07-21T23:35:59.978Z,95120.00
2018-07-21T23:38:31.566Z,95122.00
2018-07-21T23:41:03.359Z,95125.00
2018-07-21T23:43:35.099Z,95126.00
2018-07-21T23:46:07.134Z,95121.00
2018-07-21T23:48:38.339Z,95124.00
2018-07-21T23:51:10.016Z,95129.00
2018-07-21T23:53:41.735Z,95127.00
2018-07-21T23:56:14.478Z,95129.00
2018-07-21T23:58:45.756Z,95123.00
